sensor_id;sensor_type;location;lat;lon;timestamp;pressure;altitude;pressure_sealevel;temperature;humidity
70982;BME280;58640;51.320;9.456;2023-02-08T00:00:40;101669.38;;;-3.67;87.32
70982;BME280;58640;51.320;9.456;2023-02-08T00:03:05;101669.41;;;-3.69;87.44
70982;BME280;58640;51.320;9.456;2023-02-08T00:05:31;101666.78;;;-3.69;87.42
70982;BME280;58640;51.320;9.456;2023-02-08T00:07:56;101667.63;;;-3.68;87.63
70982;BME280;58640;51.320;9.456;2023-02-08T00:10:21;101667.66;;;-3.70;87.45
70982;BME280;58640;51.320;9.456;2023-02-08T00:12:47;101665.91;;;-3.69;87.21
70982;BME280;58640;51.320;9.456;2023-02-08T00:15:12;101664.22;;;-3.72;87.37
70982;BME280;58640;51.320;9.456;2023-02-08T00:17:37;101656.47;;;-3.79;87.83
70982;BME280;58640;51.320;9.456;2023-02-08T00:20:04;101665.00;;;-3.68;87.30
70982;BME280;58640;51.320;9.456;2023-02-08T00:22:30;101663.41;;;-3.75;87.43
70982;BME280;58640;51.320;9.456;2023-02-08T00:24:56;101659.97;;;-3.79;87.77
70982;BME280;58640;51.320;9.456;2023-02-08T00:27:21;101666.13;;;-3.78;87.99
70982;BME280;58640;51.320;9.456;2023-02-08T00:29:46;101661.72;;;-3.78;87.64
70982;BME280;58640;51.320;9.456;2023-02-08T00:32:12;101670.47;;;-3.77;87.56
70982;BME280;58640;51.320;9.456;2023-02-08T00:34:37;101667.03;;;-3.81;87.42
70982;BME280;58640;51.320;9.456;2023-02-08T00:37:03;101666.16;;;-3.81;87.34
70982;BME280;58640;51.320;9.456;2023-02-08T00:39:29;101662.78;;;-3.86;87.35
70982;BME280;58640;51.320;9.456;2023-02-08T00:41:54;101659.34;;;-3.90;87.79
70982;BME280;58640;51.320;9.456;2023-02-08T00:44:20;101663.75;;;-3.92;87.21
70982;BME280;58640;51.320;9.456;2023-02-08T00:46:45;101666.34;;;-3.90;87.77
70982;BME280;58640;51.320;9.456;2023-02-08T00:49:10;101661.94;;;-3.88;87.33
70982;BME280;58640;51.320;9.456;2023-02-08T00:51:36;101657.75;;;-3.98;87.74
70982;BME280;58640;51.320;9.456;2023-02-08T00:54:01;101652.56;;;-4.01;88.03
70982;BME280;58640;51.320;9.456;2023-02-08T00:56:26;101658.66;;;-3.99;88.64
70982;BME280;58640;51.320;9.456;2023-02-08T00:58:51;101658.69;;;-4.01;88.55
70982;BME280;58640;51.320;9.456;2023-02-08T01:01:17;101660.47;;;-4.03;88.72
70982;BME280;58640;51.320;9.456;2023-02-08T01:03:42;101663.91;;;-3.99;88.31
70982;BME280;58640;51.320;9.456;2023-02-08T01:06:10;101663.13;;;-4.03;88.04
70982;BME280;58640;51.320;9.456;2023-02-08T01:08:37;101659.69;;;-4.06;88.41
70982;BME280;58640;51.320;9.456;2023-02-08T01:11:08;101658.84;;;-4.08;88.64
70982;BME280;58640;51.320;9.456;2023-02-08T01:13:35;101662.44;;;-4.12;88.50
70982;BME280;58640;51.320;9.456;2023-02-08T01:16:13;101664.13;;;-4.10;88.45
70982;BME280;58640;51.320;9.456;2023-02-08T01:18:40;101651.94;;;-4.14;88.43
70982;BME280;58640;51.320;9.456;2023-02-08T01:21:11;101651.81;;;-4.08;87.78
70982;BME280;58640;51.320;9.456;2023-02-08T01:23:38;101650.19;;;-4.13;87.40
70982;BME280;58640;51.320;9.456;2023-02-08T01:26:03;101650.09;;;-4.09;87.45
70982;BME280;58640;51.320;9.456;2023-02-08T01:28:29;101645.69;;;-4.08;86.98
70982;BME280;58640;51.320;9.456;2023-02-08T01:30:54;101639.59;;;-4.09;87.30
70982;BME280;58640;51.320;9.456;2023-02-08T01:33:20;101646.59;;;-4.09;86.87
70982;BME280;58640;51.320;9.456;2023-02-08T01:35:49;101643.13;;;-4.11;86.62
70982;BME280;58640;51.320;9.456;2023-02-08T01:38:14;101633.53;;;-4.12;86.67
70982;BME280;58640;51.320;9.456;2023-02-08T01:40:39;101634.50;;;-4.18;87.13
70982;BME280;58640;51.320;9.456;2023-02-08T01:43:34;101631.91;;;-4.19;87.54
70982;BME280;58640;51.320;9.456;2023-02-08T01:46:00;101633.72;;;-4.21;87.82
70982;BME280;58640;51.320;9.456;2023-02-08T01:48:35;101632.88;;;-4.23;88.01
70982;BME280;58640;51.320;9.456;2023-02-08T01:51:19;101625.78;;;-4.18;87.45
70982;BME280;58640;51.320;9.456;2023-02-08T01:53:47;101624.06;;;-4.21;87.68
70982;BME280;58640;51.320;9.456;2023-02-08T01:56:20;101619.75;;;-4.23;87.70
70982;BME280;58640;51.320;9.456;2023-02-08T01:58:51;101614.53;;;-4.25;87.53
70982;BME280;58640;51.320;9.456;2023-02-08T02:01:18;101605.78;;;-4.27;87.83
70982;BME280;58640;51.320;9.456;2023-02-08T02:03:44;101617.19;;;-4.26;88.00
70982;BME280;58640;51.320;9.456;2023-02-08T02:06:15;101611.09;;;-4.28;88.01
70982;BME280;58640;51.320;9.456;2023-02-08T02:08:48;101609.41;;;-4.31;87.81
70982;BME280;58640;51.320;9.456;2023-02-08T02:11:17;101604.97;;;-4.30;87.77
70982;BME280;58640;51.320;9.456;2023-02-08T02:13:44;101605.06;;;-4.35;87.75
70982;BME280;58640;51.320;9.456;2023-02-08T02:16:09;101608.63;;;-4.36;87.93
70982;BME280;58640;51.320;9.456;2023-02-08T02:18:34;101603.28;;;-4.33;87.94
70982;BME280;58640;51.320;9.456;2023-02-08T02:27:09;101603.56;;;-4.47;88.63
70982;BME280;58640;51.320;9.456;2023-02-08T02:30:03;101607.06;;;-4.46;88.56
70982;BME280;58640;51.320;9.456;2023-02-08T02:32:40;101603.50;;;-4.43;88.21
70982;BME280;58640;51.320;9.456;2023-02-08T02:35:18;101607.09;;;-4.47;88.43
70982;BME280;58640;51.320;9.456;2023-02-08T02:38:13;101608.06;;;-4.53;87.99
70982;BME280;58640;51.320;9.456;2023-02-08T02:43:31;101607.03;;;-4.44;87.63
70982;BME280;58640;51.320;9.456;2023-02-08T02:46:23;101608.84;;;-4.48;87.21
70982;BME280;58640;51.320;9.456;2023-02-08T02:49:03;101615.88;;;-4.48;87.12
70982;BME280;58640;51.320;9.456;2023-02-08T02:51:47;101618.50;;;-4.48;87.24
70982;BME280;58640;51.320;9.456;2023-02-08T02:54:39;101615.09;;;-4.54;87.37
70982;BME280;58640;51.320;9.456;2023-02-08T02:57:06;101613.22;;;-4.47;87.30
70982;BME280;58640;51.320;9.456;2023-02-08T02:59:34;101615.91;;;-4.50;87.42
70982;BME280;58640;51.320;9.456;2023-02-08T03:02:01;101615.94;;;-4.53;87.44
70982;BME280;58640;51.320;9.456;2023-02-08T03:10:24;101611.53;;;-4.51;86.59
70982;BME280;58640;51.320;9.456;2023-02-08T03:13:19;101619.41;;;-4.51;86.91
70982;BME280;58640;51.320;9.456;2023-02-08T03:23:56;101612.56;;;-4.58;86.96
70982;BME280;58640;51.320;9.456;2023-02-08T03:29:07;101615.22;;;-4.63;87.14
70982;BME280;58640;51.320;9.456;2023-02-08T03:31:40;101618.75;;;-4.64;87.58
70982;BME280;58640;51.320;9.456;2023-02-08T03:34:19;101623.94;;;-4.61;87.43
70982;BME280;58640;51.320;9.456;2023-02-08T03:37:07;101624.88;;;-4.62;87.18
70982;BME280;58640;51.320;9.456;2023-02-08T03:39:36;101626.63;;;-4.62;87.40
70982;BME280;58640;51.320;9.456;2023-02-08T03:42:09;101624.00;;;-4.64;87.35
70982;BME280;58640;51.320;9.456;2023-02-08T03:44:38;101623.16;;;-4.66;87.82
70982;BME280;58640;51.320;9.456;2023-02-08T03:47:15;101625.72;;;-4.63;87.48
70982;BME280;58640;51.320;9.456;2023-02-08T03:49:42;101633.63;;;-4.64;87.89
70982;BME280;58640;51.320;9.456;2023-02-08T03:52:09;101633.69;;;-4.67;87.91
70982;BME280;58640;51.320;9.456;2023-02-08T03:54:39;101627.56;;;-4.66;88.21
70982;BME280;58640;51.320;9.456;2023-02-08T03:57:14;101631.94;;;-4.67;87.98
70982;BME280;58640;51.320;9.456;2023-02-08T03:59:47;101624.19;;;-4.73;87.92
70982;BME280;58640;51.320;9.456;2023-02-08T04:02:17;101633.88;;;-4.76;88.17
70982;BME280;58640;51.320;9.456;2023-02-08T04:04:46;101629.47;;;-4.74;88.34
70982;BME280;58640;51.320;9.456;2023-02-08T04:07:16;101628.59;;;-4.75;88.00
70982;BME280;58640;51.320;9.456;2023-02-08T04:09:41;101622.50;;;-4.77;88.47
70982;BME280;58640;51.320;9.456;2023-02-08T04:12:07;101626.00;;;-4.76;88.74
70982;BME280;58640;51.320;9.456;2023-02-08T04:14:32;101624.28;;;-4.77;88.80
70982;BME280;58640;51.320;9.456;2023-02-08T04:16:57;101626.09;;;-4.81;88.85
70982;BME280;58640;51.320;9.456;2023-02-08T04:19:23;101621.75;;;-4.85;89.12
70982;BME280;58640;51.320;9.456;2023-02-08T04:21:48;101618.31;;;-4.88;89.56
70982;BME280;58640;51.320;9.456;2023-02-08T04:24:13;101626.16;;;-4.84;89.04
70982;BME280;58640;51.320;9.456;2023-02-08T04:26:39;101623.53;;;-4.84;89.03
70982;BME280;58640;51.320;9.456;2023-02-08T04:29:04;101630.53;;;-4.86;88.82
70982;BME280;58640;51.320;9.456;2023-02-08T04:31:29;101630.47;;;-4.83;88.75
70982;BME280;58640;51.320;9.456;2023-02-08T04:33:55;101622.78;;;-4.92;88.89
70982;BME280;58640;51.320;9.456;2023-02-08T04:36:20;101618.41;;;-4.93;88.82
70982;BME280;58640;51.320;9.456;2023-02-08T04:38:46;101616.75;;;-4.97;89.07
70982;BME280;58640;51.320;9.456;2023-02-08T04:41:11;101619.41;;;-5.00;88.92
70982;BME280;58640;51.320;9.456;2023-02-08T04:43:36;101610.72;;;-5.03;89.35
70982;BME280;58640;51.320;9.456;2023-02-08T04:46:02;101608.97;;;-5.03;89.08
70982;BME280;58640;51.320;9.456;2023-02-08T04:48:27;101612.41;;;-5.01;89.16
70982;BME280;58640;51.320;9.456;2023-02-08T04:50:56;101614.19;;;-5.01;89.21
70982;BME280;58640;51.320;9.456;2023-02-08T04:53:23;101609.88;;;-5.05;89.30
70982;BME280;58640;51.320;9.456;2023-02-08T04:55:48;101613.28;;;-4.99;89.03
70982;BME280;58640;51.320;9.456;2023-02-08T04:58:14;101608.88;;;-4.97;88.84
70982;BME280;58640;51.320;9.456;2023-02-08T05:00:39;101622.00;;;-4.97;88.71
70982;BME280;58640;51.320;9.456;2023-02-08T05:03:04;101617.63;;;-4.98;88.38
70982;BME280;58640;51.320;9.456;2023-02-08T05:05:30;101621.13;;;-4.99;88.61
70982;BME280;58640;51.320;9.456;2023-02-08T05:07:56;101619.47;;;-5.03;88.82
70982;BME280;58640;51.320;9.456;2023-02-08T05:10:21;101624.78;;;-5.07;88.86
70982;BME280;58640;51.320;9.456;2023-02-08T05:12:46;101624.66;;;-5.00;88.76
70982;BME280;58640;51.320;9.456;2023-02-08T05:15:12;101612.47;;;-5.04;88.72
70982;BME280;58640;51.320;9.456;2023-02-08T05:17:37;101616.97;;;-5.10;88.85
70982;BME280;58640;51.320;9.456;2023-02-08T05:20:04;101611.75;;;-5.12;89.21
70982;BME280;58640;51.320;9.456;2023-02-08T05:22:31;101606.41;;;-5.07;89.16
70982;BME280;58640;51.320;9.456;2023-02-08T05:24:56;101614.34;;;-5.12;89.10
70982;BME280;58640;51.320;9.456;2023-02-08T05:27:22;101610.91;;;-5.12;89.17
70982;BME280;58640;51.320;9.456;2023-02-08T05:29:47;101611.81;;;-5.16;89.41
70982;BME280;58640;51.320;9.456;2023-02-08T05:32:12;101618.81;;;-5.17;89.29
70982;BME280;58640;51.320;9.456;2023-02-08T05:34:37;101616.25;;;-5.20;89.28
70982;BME280;58640;51.320;9.456;2023-02-08T05:37:03;101620.66;;;-5.22;89.70
70982;BME280;58640;51.320;9.456;2023-02-08T05:39:28;101623.28;;;-5.22;90.00
70982;BME280;58640;51.320;9.456;2023-02-08T05:41:54;101618.88;;;-5.21;89.62
70982;BME280;58640;51.320;9.456;2023-02-08T05:44:19;101616.31;;;-5.24;89.49
70982;BME280;58640;51.320;9.456;2023-02-08T05:46:45;101621.50;;;-5.20;89.63
70982;BME280;58640;51.320;9.456;2023-02-08T05:49:10;101620.66;;;-5.22;89.68
70982;BME280;58640;51.320;9.456;2023-02-08T05:51:35;101623.28;;;-5.23;89.70
70982;BME280;58640;51.320;9.456;2023-02-08T05:54:01;101621.59;;;-5.26;89.72
70982;BME280;58640;51.320;9.456;2023-02-08T05:56:26;101633.91;;;-5.31;89.83
70982;BME280;58640;51.320;9.456;2023-02-08T05:58:52;101634.72;;;-5.27;89.79
70982;BME280;58640;51.320;9.456;2023-02-08T06:01:18;101626.88;;;-5.27;89.56
70982;BME280;58640;51.320;9.456;2023-02-08T06:03:44;101628.63;;;-5.29;89.71
70982;BME280;58640;51.320;9.456;2023-02-08T06:06:09;101630.41;;;-5.30;89.85
70982;BME280;58640;51.320;9.456;2023-02-08T06:08:37;101636.50;;;-5.29;89.77
70982;BME280;58640;51.320;9.456;2023-02-08T06:11:03;101635.66;;;-5.30;89.77
70982;BME280;58640;51.320;9.456;2023-02-08T06:13:29;101627.81;;;-5.33;89.79
70982;BME280;58640;51.320;9.456;2023-02-08T06:15:55;101629.53;;;-5.30;90.00
70982;BME280;58640;51.320;9.456;2023-02-08T06:18:20;101630.47;;;-5.36;89.93
70982;BME280;58640;51.320;9.456;2023-02-08T06:20:46;101631.31;;;-5.32;90.15
70982;BME280;58640;51.320;9.456;2023-02-08T06:23:11;101624.41;;;-5.36;89.79
70982;BME280;58640;51.320;9.456;2023-02-08T06:25:37;101622.63;;;-5.36;89.87
70982;BME280;58640;51.320;9.456;2023-02-08T06:28:03;101632.22;;;-5.35;90.09
70982;BME280;58640;51.320;9.456;2023-02-08T06:30:29;101626.09;;;-5.34;89.59
70982;BME280;58640;51.320;9.456;2023-02-08T06:32:55;101630.47;;;-5.34;89.94
70982;BME280;58640;51.320;9.456;2023-02-08T06:35:21;101642.72;;;-5.35;90.17
70982;BME280;58640;51.320;9.456;2023-02-08T06:37:46;101638.31;;;-5.33;90.03
70982;BME280;58640;51.320;9.456;2023-02-08T06:40:11;101636.56;;;-5.34;89.91
70982;BME280;58640;51.320;9.456;2023-02-08T06:42:37;101639.19;;;-5.34;90.13
70982;BME280;58640;51.320;9.456;2023-02-08T06:45:02;101641.81;;;-5.34;89.89
70982;BME280;58640;51.320;9.456;2023-02-08T06:47:28;101652.19;;;-5.26;89.86
70982;BME280;58640;51.320;9.456;2023-02-08T06:49:53;101642.53;;;-5.24;89.78
70982;BME280;58640;51.320;9.456;2023-02-08T06:52:19;101648.66;;;-5.22;89.26
70982;BME280;58640;51.320;9.456;2023-02-08T06:54:45;101644.25;;;-5.20;89.57
70982;BME280;58640;51.320;9.456;2023-02-08T06:57:10;101646.78;;;-5.16;89.61
70982;BME280;58640;51.320;9.456;2023-02-08T06:59:37;101640.66;;;-5.15;89.50
70982;BME280;58640;51.320;9.456;2023-02-08T07:02:03;101643.25;;;-5.13;89.95
70982;BME280;58640;51.320;9.456;2023-02-08T07:04:29;101640.59;;;-5.12;89.98
70982;BME280;58640;51.320;9.456;2023-02-08T07:06:54;101647.59;;;-5.11;89.88
70982;BME280;58640;51.320;9.456;2023-02-08T07:09:20;101651.84;;;-5.04;89.76
70982;BME280;58640;51.320;9.456;2023-02-08T07:11:45;101650.91;;;-5.00;89.70
70982;BME280;58640;51.320;9.456;2023-02-08T07:14:12;101647.31;;;-4.96;89.26
70982;BME280;58640;51.320;9.456;2023-02-08T07:16:38;101647.22;;;-4.90;89.46
70982;BME280;58640;51.320;9.456;2023-02-08T07:19:04;101640.13;;;-4.85;89.02
70982;BME280;58640;51.320;9.456;2023-02-08T07:21:29;101639.22;;;-4.81;89.05
70982;BME280;58640;51.320;9.456;2023-02-08T07:23:55;101640.88;;;-4.77;88.97
70982;BME280;58640;51.320;9.456;2023-02-08T07:26:20;101644.25;;;-4.70;88.94
70982;BME280;58640;51.320;9.456;2023-02-08T07:28:45;101639.88;;;-4.70;89.07
70982;BME280;58640;51.320;9.456;2023-02-08T07:31:13;101637.97;;;-4.60;88.75
70982;BME280;58640;51.320;9.456;2023-02-08T07:33:39;101641.38;;;-4.55;88.66
70982;BME280;58640;51.320;9.456;2023-02-08T07:36:05;101643.84;;;-4.47;88.22
70982;BME280;58640;51.320;9.456;2023-02-08T07:38:32;101642.91;;;-4.45;88.01
70982;BME280;58640;51.320;9.456;2023-02-08T07:41:06;101634.00;;;-4.36;87.91
70982;BME280;58640;51.320;9.456;2023-02-08T07:43:35;101626.03;;;-4.32;87.73
70982;BME280;58640;51.320;9.456;2023-02-08T07:46:11;101629.38;;;-4.24;87.73
70982;BME280;58640;51.320;9.456;2023-02-08T07:48:37;101634.66;;;-4.25;87.58
70982;BME280;58640;51.320;9.456;2023-02-08T07:51:03;101636.28;;;-4.18;87.47
70982;BME280;58640;51.320;9.456;2023-02-08T07:53:29;101636.22;;;-4.15;87.44
70982;BME280;58640;51.320;9.456;2023-02-08T07:55:55;101634.38;;;-4.10;87.72
70982;BME280;58640;51.320;9.456;2023-02-08T07:58:20;101629.16;;;-4.12;87.91
70982;BME280;58640;51.320;9.456;2023-02-08T08:00:46;101627.28;;;-4.08;87.48
70982;BME280;58640;51.320;9.456;2023-02-08T08:03:14;101623.63;;;-4.00;87.19
70982;BME280;58640;51.320;9.456;2023-02-08T08:05:40;101624.25;;;-3.89;86.64
70982;BME280;58640;51.320;9.456;2023-02-08T08:08:06;101621.34;;;-3.75;85.59
70982;BME280;58640;51.320;9.456;2023-02-08T08:10:32;101625.56;;;-3.68;85.71
70982;BME280;58640;51.320;9.456;2023-02-08T08:12:58;101632.75;;;-3.38;84.99
70982;BME280;58640;51.320;9.456;2023-02-08T08:15:23;101632.19;;;-3.14;83.84
70982;BME280;58640;51.320;9.456;2023-02-08T08:17:48;101633.34;;;-2.89;82.75
70982;BME280;58640;51.320;9.456;2023-02-08T08:20:14;101622.91;;;-2.60;81.35
70982;BME280;58640;51.320;9.456;2023-02-08T08:22:39;101625.00;;;-2.40;80.54
70982;BME280;58640;51.320;9.456;2023-02-08T08:25:05;101623.78;;;-2.27;80.45
70982;BME280;58640;51.320;9.456;2023-02-08T08:27:30;101620.16;;;-1.94;78.61
70982;BME280;58640;51.320;9.456;2023-02-08T08:29:56;101618.00;;;-1.80;77.73
70982;BME280;58640;51.320;9.456;2023-02-08T08:32:21;101621.44;;;-1.78;77.82
70982;BME280;58640;51.320;9.456;2023-02-08T08:34:47;101620.28;;;-1.68;77.27
70982;BME280;58640;51.320;9.456;2023-02-08T08:37:12;101616.13;;;-1.48;77.21
70982;BME280;58640;51.320;9.456;2023-02-08T08:39:37;101605.03;;;-1.31;76.26
70982;BME280;58640;51.320;9.456;2023-02-08T08:42:03;101606.78;;;-1.04;76.26
70982;BME280;58640;51.320;9.456;2023-02-08T08:44:29;101602.56;;;-0.83;74.03
70982;BME280;58640;51.320;9.456;2023-02-08T08:46:55;101603.56;;;-0.61;74.07
70982;BME280;58640;51.320;9.456;2023-02-08T08:49:22;101610.63;;;-0.37;72.17
70982;BME280;58640;51.320;9.456;2023-02-08T08:51:48;101606.47;;;-0.20;71.92
70982;BME280;58640;51.320;9.456;2023-02-08T08:54:13;101610.69;;;-0.39;71.63
70982;BME280;58640;51.320;9.456;2023-02-08T08:56:39;101598.72;;;-0.24;71.62
70982;BME280;58640;51.320;9.456;2023-02-08T08:59:04;101592.09;;;0.11;70.63
70982;BME280;58640;51.320;9.456;2023-02-08T09:01:30;101599.41;;;0.27;69.41
70982;BME280;58640;51.320;9.456;2023-02-08T09:03:55;101600.69;;;0.17;68.89
70982;BME280;58640;51.320;9.456;2023-02-08T09:06:20;101601.66;;;0.59;68.32
70982;BME280;58640;51.320;9.456;2023-02-08T09:08:46;101610.91;;;0.49;68.15
70982;BME280;58640;51.320;9.456;2023-02-08T09:11:13;101607.09;;;0.78;67.33
70982;BME280;58640;51.320;9.456;2023-02-08T09:13:39;101606.38;;;1.16;66.14
70982;BME280;58640;51.320;9.456;2023-02-08T09:16:07;101601.69;;;1.42;64.69
70982;BME280;58640;51.320;9.456;2023-02-08T09:18:33;101596.00;;;1.72;64.23
70982;BME280;58640;51.320;9.456;2023-02-08T09:20:58;101603.44;;;2.02;62.71
70982;BME280;58640;51.320;9.456;2023-02-08T09:23:24;101601.25;;;2.12;61.35
70982;BME280;58640;51.320;9.456;2023-02-08T09:25:49;101595.56;;;2.38;60.99
70982;BME280;58640;51.320;9.456;2023-02-08T09:28:14;101606.50;;;2.50;60.79
70982;BME280;58640;51.320;9.456;2023-02-08T09:30:40;101599.66;;;2.99;59.59
70982;BME280;58640;51.320;9.456;2023-02-08T09:33:05;101603.44;;;2.95;59.68
70982;BME280;58640;51.320;9.456;2023-02-08T09:35:31;101605.16;;;3.13;58.36
70982;BME280;58640;51.320;9.456;2023-02-08T09:37:56;101607.94;;;3.29;57.96
70982;BME280;58640;51.320;9.456;2023-02-08T09:40:29;101603.28;;;3.32;58.20
70982;BME280;58640;51.320;9.456;2023-02-08T09:43:09;101610.03;;;3.39;58.76
70982;BME280;58640;51.320;9.456;2023-02-08T09:45:55;101608.41;;;3.54;57.60
70982;BME280;58640;51.320;9.456;2023-02-08T09:48:30;101605.19;;;3.47;57.67
70982;BME280;58640;51.320;9.456;2023-02-08T09:51:21;101600.47;;;3.35;56.97
70982;BME280;58640;51.320;9.456;2023-02-08T09:53:56;101602.06;;;3.39;56.10
70982;BME280;58640;51.320;9.456;2023-02-08T09:56:28;101599.78;;;3.66;55.08
70982;BME280;58640;51.320;9.456;2023-02-08T09:58:55;101609.47;;;3.84;55.15
70982;BME280;58640;51.320;9.456;2023-02-08T10:01:24;101605.03;;;3.50;54.79
70982;BME280;58640;51.320;9.456;2023-02-08T10:06:41;101600.28;;;4.06;54.58
70982;BME280;58640;51.320;9.456;2023-02-08T10:09:11;101597.28;;;4.12;54.47
70982;BME280;58640;51.320;9.456;2023-02-08T10:14:49;101587.59;;;4.42;53.84
70982;BME280;58640;51.320;9.456;2023-02-08T10:23:07;101588.81;;;4.37;52.27
70982;BME280;58640;51.320;9.456;2023-02-08T10:28:33;101582.63;;;4.36;50.01
70982;BME280;58640;51.320;9.456;2023-02-08T10:33:45;101578.91;;;4.86;50.36
70982;BME280;58640;51.320;9.456;2023-02-08T10:36:24;101574.75;;;5.11;47.91
70982;BME280;58640;51.320;9.456;2023-02-08T10:38:52;101563.72;;;5.17;47.87
70982;BME280;58640;51.320;9.456;2023-02-08T10:41:22;101560.31;;;5.00;44.41
70982;BME280;58640;51.320;9.456;2023-02-08T10:43:55;101551.69;;;5.10;45.29
70982;BME280;58640;51.320;9.456;2023-02-08T10:46:39;101540.91;;;4.82;45.16
70982;BME280;58640;51.320;9.456;2023-02-08T10:49:19;101548.81;;;4.99;46.20
70982;BME280;58640;51.320;9.456;2023-02-08T10:51:47;101545.44;;;4.96;46.15
70982;BME280;58640;51.320;9.456;2023-02-08T10:54:13;101535.06;;;4.76;46.67
70982;BME280;58640;51.320;9.456;2023-02-08T10:56:43;101532.91;;;4.82;45.62
70982;BME280;58640;51.320;9.456;2023-02-08T10:59:19;101527.06;;;4.76;45.89
70982;BME280;58640;51.320;9.456;2023-02-08T11:01:46;101529.06;;;4.57;46.90
70982;BME280;58640;51.320;9.456;2023-02-08T11:04:12;101537.84;;;4.59;46.69
70982;BME280;58640;51.320;9.456;2023-02-08T11:06:41;101535.63;;;4.51;47.08
70982;BME280;58640;51.320;9.456;2023-02-08T11:09:20;101532.00;;;4.36;47.10
70982;BME280;58640;51.320;9.456;2023-02-08T11:11:45;101528.72;;;4.31;47.66
70982;BME280;58640;51.320;9.456;2023-02-08T11:14:25;101517.72;;;4.06;47.83
70982;BME280;58640;51.320;9.456;2023-02-08T11:16:52;101519.19;;;4.27;49.11
70982;BME280;58640;51.320;9.456;2023-02-08T11:21:58;101513.63;;;4.32;48.72
70982;BME280;58640;51.320;9.456;2023-02-08T11:24:32;101511.34;;;4.09;48.78
70982;BME280;58640;51.320;9.456;2023-02-08T11:27:28;101505.59;;;4.01;48.26
70982;BME280;58640;51.320;9.456;2023-02-08T11:33:15;101497.03;;;4.27;49.04
70982;BME280;58640;51.320;9.456;2023-02-08T11:35:50;101493.31;;;4.14;47.38
70982;BME280;58640;51.320;9.456;2023-02-08T11:38:18;101481.09;;;3.79;49.22
70982;BME280;58640;51.320;9.456;2023-02-08T11:40:44;101489.97;;;3.95;49.93
70982;BME280;58640;51.320;9.456;2023-02-08T11:43:26;101491.66;;;3.96;50.00
70982;BME280;58640;51.320;9.456;2023-02-08T11:45:53;101483.31;;;3.86;50.21
70982;BME280;58640;51.320;9.456;2023-02-08T11:48:40;101490.88;;;3.78;50.23
70982;BME280;58640;51.320;9.456;2023-02-08T11:51:08;101483.19;;;3.57;49.63
70982;BME280;58640;51.320;9.456;2023-02-08T11:53:39;101483.09;;;3.58;51.12
70982;BME280;58640;51.320;9.456;2023-02-08T11:56:39;101471.59;;;3.58;50.70
70982;BME280;58640;51.320;9.456;2023-02-08T12:01:29;101473.41;;;3.57;51.45
70982;BME280;58640;51.320;9.456;2023-02-08T12:03:57;101481.88;;;3.48;50.53
70982;BME280;58640;51.320;9.456;2023-02-08T12:15:00;101474.56;;;3.36;51.05
70982;BME280;58640;51.320;9.456;2023-02-08T12:18:00;101476.19;;;3.39;50.07
70982;BME280;58640;51.320;9.456;2023-02-08T12:20:43;101470.03;;;3.38;49.61
70982;BME280;58640;51.320;9.456;2023-02-08T12:23:49;101471.53;;;3.27;49.27
70982;BME280;58640;51.320;9.456;2023-02-08T12:26:33;101461.72;;;3.27;48.88
70982;BME280;58640;51.320;9.456;2023-02-08T12:29:21;101448.22;;;3.15;50.06
70982;BME280;58640;51.320;9.456;2023-02-08T12:37:33;101447.84;;;3.22;50.54
70982;BME280;58640;51.320;9.456;2023-02-08T12:41:40;101440.03;;;3.19;48.71
70982;BME280;58640;51.320;9.456;2023-02-08T12:44:04;101429.69;;;3.13;48.70
70982;BME280;58640;51.320;9.456;2023-02-08T12:46:59;101426.31;;;3.27;48.59
70982;BME280;58640;51.320;9.456;2023-02-08T12:49:49;101432.78;;;3.38;47.96
70982;BME280;58640;51.320;9.456;2023-02-08T12:52:26;101426.63;;;3.53;45.84
70982;BME280;58640;51.320;9.456;2023-02-08T12:55:23;101423.06;;;3.37;43.86
70982;BME280;58640;51.320;9.456;2023-02-08T12:57:57;101424.22;;;3.49;45.45
70982;BME280;58640;51.320;9.456;2023-02-08T13:00:29;101420.31;;;3.39;45.04
70982;BME280;58640;51.320;9.456;2023-02-08T13:03:04;101413.34;;;3.21;45.44
70982;BME280;58640;51.320;9.456;2023-02-08T13:05:38;101410.69;;;3.21;45.78
70982;BME280;58640;51.320;9.456;2023-02-08T13:08:40;101408.06;;;3.36;46.59
70982;BME280;58640;51.320;9.456;2023-02-08T13:11:16;101400.63;;;3.26;45.93
70982;BME280;58640;51.320;9.456;2023-02-08T13:13:43;101395.94;;;3.31;44.45
70982;BME280;58640;51.320;9.456;2023-02-08T13:16:17;101391.41;;;3.33;42.94
70982;BME280;58640;51.320;9.456;2023-02-08T13:21:40;101390.53;;;3.32;44.00
70982;BME280;58640;51.320;9.456;2023-02-08T13:26:49;101392.03;;;3.38;43.73
70982;BME280;58640;51.320;9.456;2023-02-08T13:29:17;101389.63;;;3.33;44.21
70982;BME280;58640;51.320;9.456;2023-02-08T13:31:46;101388.41;;;3.39;44.19
70982;BME280;58640;51.320;9.456;2023-02-08T13:36:49;101391.44;;;3.48;43.63
70982;BME280;58640;51.320;9.456;2023-02-08T13:39:42;101383.00;;;3.40;43.70
70982;BME280;58640;51.320;9.456;2023-02-08T13:42:40;101375.47;;;3.48;43.27
70982;BME280;58640;51.320;9.456;2023-02-08T13:45:08;101368.25;;;3.50;43.47
70982;BME280;58640;51.320;9.456;2023-02-08T13:47:43;101371.19;;;3.46;43.64
70982;BME280;58640;51.320;9.456;2023-02-08T13:50:41;101368.00;;;3.39;44.38
70982;BME280;58640;51.320;9.456;2023-02-08T13:53:07;101361.38;;;3.31;44.96
70982;BME280;58640;51.320;9.456;2023-02-08T13:55:43;101358.25;;;3.23;45.51
70982;BME280;58640;51.320;9.456;2023-02-08T14:03:25;101358.25;;;3.23;44.57
70982;BME280;58640;51.320;9.456;2023-02-08T14:06:18;101356.47;;;3.23;44.02
70982;BME280;58640;51.320;9.456;2023-02-08T14:09:13;101347.75;;;3.37;43.00
70982;BME280;58640;51.320;9.456;2023-02-08T14:11:48;101343.19;;;3.39;43.28
70982;BME280;58640;51.320;9.456;2023-02-08T14:16:44;101341.84;;;3.63;43.13
70982;BME280;58640;51.320;9.456;2023-02-08T14:21:47;101332.41;;;3.57;42.68
70982;BME280;58640;51.320;9.456;2023-02-08T14:24:37;101328.09;;;3.55;42.45
70982;BME280;58640;51.320;9.456;2023-02-08T14:32:43;101330.22;;;3.33;43.40
70982;BME280;58640;51.320;9.456;2023-02-08T14:37:38;101326.13;;;3.43;43.26
70982;BME280;58640;51.320;9.456;2023-02-08T14:43:26;101325.78;;;3.49;42.77